This is the latest recevied weather packets stored in our database for station/object OE-11373. If no packets are shown the sender has not sent any weather packets the latest 10 day(s).
| Time | Temp. | Humidity | Pressure | Rain* | Wind** | Luminosity | Snow |
|---|---|---|---|---|---|---|---|
| 1788019513 | 17.78° C | 54% | 852.5 hPa | - | - | - | - |
| 1788018912 | 18.33° C | 51% | 852.6 hPa | - | - | - | - |
| 1788018086 | 18.33° C | 52% | 852.6 hPa | - | - | - | - |
| 1788017713 | 18.33° C | 54% | 852.6 hPa | - | - | - | - |
| 1788017113 | 18.33° C | 53% | 852.6 hPa | - | - | - | - |
| 1788016286 | 18.89° C | 55% | 852.7 hPa | - | - | - | - |
| 1788015913 | 18.33° C | 58% | 852.7 hPa | - | - | - | - |
| 1788015313 | 18.89° C | 58% | 852.9 hPa | - | - | - | - |
| 1788014486 | 18.89° C | 53% | 852.8 hPa | - | - | - | - |
| 1788014113 | 19.44° C | 50% | 852.9 hPa | - | - | - | - |
| 1788013512 | 18.89° C | 50% | 852.9 hPa | - | - | - | - |
| 1788012686 | 18.33° C | 50% | 853 hPa | - | - | - | - |
| 1788012313 | 18.89° C | 51% | 853.2 hPa | - | - | - | - |
| 1788011713 | 18.33° C | 54% | 853.2 hPa | - | - | - | - |
| 1788010886 | 17.78° C | 55% | 853.1 hPa | - | - | - | - |
| 1788010513 | 17.78° C | 56% | 853.2 hPa | - | - | - | - |
| 1788009912 | 17.22° C | 52% | 853.1 hPa | - | - | - | - |
| 1788009085 | 17.78° C | 55% | 853.2 hPa | - | - | - | - |
| 1788008713 | 17.22° C | 55% | 853.1 hPa | - | - | - | - |
| 1788008113 | 17.78° C | 54% | 853.3 hPa | - | - | - | - |
| 1788007286 | 17.22° C | 56% | 853.3 hPa | - | - | - | - |
| 1788006913 | 16.67° C | 59% | 853.2 hPa | - | - | - | - |
| 1788006313 | 16.67° C | 60% | 853.3 hPa | - | - | - | - |
| 1788005485 | 17.78° C | 60% | 853.4 hPa | - | - | - | - |
| 1788005113 | 17.22° C | 62% | 853.4 hPa | - | - | - | - |
* Rain since midnight (hover to see other rain measurements)
** Current wind speed in m/s (hover to see current wind gust speed)